Thalassa — FNFP — position and weather

sailwx.info

Track history (hours):
 
Tides and Currents Weather Stations Pressure Air Temp Water Temp Dewpoint Dewpoint Depression Visibility Wind Speed Wind Dir Waves Ship Positions

Oceanographic research ship Thalassa (France & Spain)

Detailed information on ship capabilities available from University of Delaware's Ocean Information Center.

Last reported at 2015-May-27 04:33 UTC. Time now 2015-May-27 05:46 UTC.
Position N 47°58' W 004°41'.

Length 74 m; beam 15 m.

Type: . MMSI: 227297000.

Date/timePositionNaut miles runAvg speedWind from/ knotsBaromVisibWave heightAir tempDewpointWater temp
2015-May-27 04:33N 47°58' W 004°41'1 1.3
2015-May-27 03:33N 47°56' W 004°41'2 2.4
2015-May-27 02:33N 47°54' W 004°42'3 3.2
2015-May-27 01:33N 47°51' W 004°43'16 4.0
2015-May-26 21:26N 47°35' W 004°48'24 6.1
2015-May-26 17:33N 47°57' W 004°34'7 7.3
2015-May-26 16:33N 47°53' W 004°24'1310.3
2015-May-26 15:18N 47°43' W 004°37'810.2
2015-May-26 14:32N 47°37' W 004°45'8 7.3
2015-May-26 13:28N 47°31' W 004°53'6 2.6
2015-May-26 11:07N 47°27' W 004°58'16 8.8
2015-May-26 09:20N 47°27' W 004°35'15 1.1
2015-May-25 19:33N 47°13' W 004°28'9 8.2
2015-May-25 18:27N 47°20' W 004°19'910.3
2015-May-25 17:33N 47°26' W 004°10'1010.2
2015-May-25 16:33N 47°34' W 003°59'8 8.1
2015-May-25 15:33N 47°40' W 003°51'2 1.6
2015-May-25 14:33N 47°39' W 003°53'5 5.3
2015-May-25 13:33N 47°44' W 003°50'0 0.3
2015-May-25 12:33N 47°44' W 003°51'6 5.2
2015-May-25 11:22N 47°38' W 003°53'911.8
2015-May-25 10:33N 47°37' W 003°39'6 5.6
2015-May-25 09:33N 47°35' W 003°32'1 1.3
2015-May-25 08:33N 47°34' W 003°33'1010.2
2015-May-25 07:33N 47°27' W 003°44'1010.3
2015-May-25 06:33N 47°20' W 003°56'1010.3
2015-May-25 05:33N 47°13' W 004°07'1210.3
2015-May-25 04:22N 47°05' W 004°20'19 8.2
2015-May-25 02:06N 47°10' W 004°46'5 9.8
2015-May-25 01:33N 47°11' W 004°54'5 3.7
2015-May-25 00:16N 47°08' W 004°60'1111.0
2015-May-24 23:15N 46°60' W 005°11'15 1.5
2015-May-24 13:13N 47°11' W 004°56'1010.1
2015-May-24 12:14N 47°18' W 004°46'7 8.5
2015-May-24 11:22N 47°16' W 004°36'7 7.9
2015-May-24 10:30N 47°11' W 004°31'43 1.5
2015-May-23 05:25N 46°52' W 003°35'33 1.6
2015-May-22 08:33N 47°23' W 003°21'5 4.8
2015-May-22 07:33N 47°28' W 003°21'9 8.6
2015-May-22 06:33N 47°37' W 003°19'8 7.7
2015-May-22 05:33N 47°44' W 003°21'0 0.0
2015-May-22 04:32N 47°44' W 003°21'0 0.0
2015-May-22 03:32N 47°44' W 003°21'0 0.0
2015-May-22 02:32N 47°44' W 003°21'0 0.0
2015-May-22 01:32N 47°44' W 003°21'0 0.0
2015-May-22 00:32N 47°44' W 003°21'0 0.0
2015-May-21 23:32N 47°44' W 003°21'0 0.0
2015-May-21 22:32N 47°44' W 003°21'0 0.0
2015-May-21 21:32N 47°44' W 003°21'0 0.0
2015-May-21 20:32N 47°44' W 003°21'0 0.0
2015-May-21 19:32N 47°44' W 003°21'0 0.0
2015-May-21 18:32N 47°44' W 003°21'0 0.0
2015-May-21 17:32N 47°44' W 003°21'0 0.0
2015-May-21 16:32N 47°44' W 003°21'0 0.0
2015-May-21 15:32N 47°44' W 003°21'0 0.0
2015-May-21 14:32N 47°44' W 003°21'0 0.0
2015-May-21 13:32N 47°44' W 003°21'0 0.0
2015-May-21 12:32N 47°44' W 003°21'0 0.0
2015-May-21 11:33N 47°44' W 003°21'0 0.0
2015-May-21 10:33N 47°44' W 003°21'0 0.0
2015-May-21 09:33N 47°44' W 003°21'0 0.0
2015-May-21 08:33N 47°44' W 003°21'0 0.0
2015-May-21 07:33N 47°44' W 003°21'0 0.0
2015-May-21 06:33N 47°44' W 003°21'0 0.1
2015-May-21 05:33N 47°44' W 003°21'5 5.3
2015-May-21 04:33N 47°40' W 003°26'3 2.5
2015-May-21 03:33N 47°39' W 003°23'3 3.4
2015-May-21 02:33N 47°38' W 003°18'4 4.3
2015-May-21 01:33N 47°34' W 003°21'4 4.5
2015-May-21 00:33N 47°30' W 003°25'4 4.0
2015-May-20 23:33N 47°27' W 003°28'3 3.1
2015-May-20 22:33N 47°24' W 003°30'5 3.7
2015-May-20 21:13N 47°20' W 003°34'6 0.4
2015-May-20 05:33N 47°24' W 003°27'10 9.8
2015-May-20 04:33N 47°30' W 003°16'3 2.8
2015-May-20 03:33N 47°27' W 003°17'25 3.6
2015-May-19 20:32N 47°09' W 002°50'5 5.1
2015-May-19 19:32N 47°11' W 002°44'1211.7
2015-May-19 18:32N 47°18' W 002°58'8 7.7
2015-May-19 17:31N 47°15' W 003°08'14 1.1
2015-May-19 05:28N 47°09' W 002°50'10 9.8
2015-May-19 04:29N 47°14' W 002°37'14 0.8
2015-May-18 11:29N 47°02' W 002°27'1010.3
2015-May-18 10:28N 46°51' W 002°24'2510.5
2015-May-18 08:06N 46°38' W 002°56'1 0.9
2015-May-18 07:30N 46°39' W 002°56'1 0.6
2015-May-18 06:06N 46°39' W 002°55'610.2
2015-May-18 05:29N 46°36' W 003°03'9 3.8
2015-May-18 03:04N 46°29' W 003°11'1 1.2
2015-May-18 02:32N 46°29' W 003°12'4 3.7
2015-May-18 01:33N 46°28' W 003°06'3 2.9
2015-May-18 00:29N 46°27' W 003°02'3 2.8
2015-May-17 23:32N 46°26' W 002°59'2 2.1
2015-May-17 22:31N 46°26' W 002°56'1010.0
2015-May-17 21:33N 46°30' W 002°43'10 8.2
2015-May-17 20:21N 46°35' W 002°31'  
Track history (hours):
 
Tides and Currents Weather Stations Pressure Air Temp Water Temp Dewpoint Dewpoint Depression Visibility Wind Speed Wind Dir Waves Ship Positions

Oceanographic research ship Thalassa (France & Spain)

Detailed information on ship capabilities available from University of Delaware's Ocean Information Center.

Last reported at 2015-May-27 04:33 UTC. Time now 2015-May-27 05:46 UTC.
Position N 47°58' W 004°41'.

Length 74 m; beam 15 m.

Type: . MMSI: 227297000.

Date/timePositionNaut miles runAvg speedWind from/ knotsBaromVisibWave heightAir tempDewpointWater temp
2015-May-27 04:33N 47°58' W 004°41'1 1.3
2015-May-27 03:33N 47°56' W 004°41'2 2.4
2015-May-27 02:33N 47°54' W 004°42'3 3.2
2015-May-27 01:33N 47°51' W 004°43'16 4.0
2015-May-26 21:26N 47°35' W 004°48'24 6.1
2015-May-26 17:33N 47°57' W 004°34'7 7.3
2015-May-26 16:33N 47°53' W 004°24'1310.3
2015-May-26 15:18N 47°43' W 004°37'810.2
2015-May-26 14:32N 47°37' W 004°45'8 7.3
2015-May-26 13:28N 47°31' W 004°53'6 2.6
2015-May-26 11:07N 47°27' W 004°58'16 8.8
2015-May-26 09:20N 47°27' W 004°35'15 1.1
2015-May-25 19:33N 47°13' W 004°28'9 8.2
2015-May-25 18:27N 47°20' W 004°19'910.3
2015-May-25 17:33N 47°26' W 004°10'1010.2
2015-May-25 16:33N 47°34' W 003°59'8 8.1
2015-May-25 15:33N 47°40' W 003°51'2 1.6
2015-May-25 14:33N 47°39' W 003°53'5 5.3
2015-May-25 13:33N 47°44' W 003°50'0 0.3
2015-May-25 12:33N 47°44' W 003°51'6 5.2
2015-May-25 11:22N 47°38' W 003°53'911.8
2015-May-25 10:33N 47°37' W 003°39'6 5.6
2015-May-25 09:33N 47°35' W 003°32'1 1.3
2015-May-25 08:33N 47°34' W 003°33'1010.2
2015-May-25 07:33N 47°27' W 003°44'1010.3
2015-May-25 06:33N 47°20' W 003°56'1010.3
2015-May-25 05:33N 47°13' W 004°07'1210.3
2015-May-25 04:22N 47°05' W 004°20'19 8.2
2015-May-25 02:06N 47°10' W 004°46'5 9.8
2015-May-25 01:33N 47°11' W 004°54'5 3.7
2015-May-25 00:16N 47°08' W 004°60'1111.0
2015-May-24 23:15N 46°60' W 005°11'15 1.5
2015-May-24 13:13N 47°11' W 004°56'1010.1
2015-May-24 12:14N 47°18' W 004°46'7 8.5
2015-May-24 11:22N 47°16' W 004°36'7 7.9
2015-May-24 10:30N 47°11' W 004°31'43 1.5
2015-May-23 05:25N 46°52' W 003°35'33 1.6
2015-May-22 08:33N 47°23' W 003°21'5 4.8
2015-May-22 07:33N 47°28' W 003°21'9 8.6
2015-May-22 06:33N 47°37' W 003°19'8 7.7
2015-May-22 05:33N 47°44' W 003°21'0 0.0
2015-May-22 04:32N 47°44' W 003°21'0 0.0
2015-May-22 03:32N 47°44' W 003°21'0 0.0
2015-May-22 02:32N 47°44' W 003°21'0 0.0
2015-May-22 01:32N 47°44' W 003°21'0 0.0
2015-May-22 00:32N 47°44' W 003°21'0 0.0
2015-May-21 23:32N 47°44' W 003°21'0 0.0
2015-May-21 22:32N 47°44' W 003°21'0 0.0
2015-May-21 21:32N 47°44' W 003°21'0 0.0
2015-May-21 20:32N 47°44' W 003°21'0 0.0
2015-May-21 19:32N 47°44' W 003°21'0 0.0
2015-May-21 18:32N 47°44' W 003°21'0 0.0
2015-May-21 17:32N 47°44' W 003°21'0 0.0
2015-May-21 16:32N 47°44' W 003°21'0 0.0
2015-May-21 15:32N 47°44' W 003°21'0 0.0
2015-May-21 14:32N 47°44' W 003°21'0 0.0
2015-May-21 13:32N 47°44' W 003°21'0 0.0
2015-May-21 12:32N 47°44' W 003°21'0 0.0
2015-May-21 11:33N 47°44' W 003°21'0 0.0
2015-May-21 10:33N 47°44' W 003°21'0 0.0
2015-May-21 09:33N 47°44' W 003°21'0 0.0
2015-May-21 08:33N 47°44' W 003°21'0 0.0
2015-May-21 07:33N 47°44' W 003°21'0 0.0
2015-May-21 06:33N 47°44' W 003°21'0 0.1
2015-May-21 05:33N 47°44' W 003°21'5 5.3
2015-May-21 04:33N 47°40' W 003°26'3 2.5
2015-May-21 03:33N 47°39' W 003°23'3 3.4
2015-May-21 02:33N 47°38' W 003°18'4 4.3
2015-May-21 01:33N 47°34' W 003°21'4 4.5
2015-May-21 00:33N 47°30' W 003°25'4 4.0
2015-May-20 23:33N 47°27' W 003°28'3 3.1
2015-May-20 22:33N 47°24' W 003°30'5 3.7
2015-May-20 21:13N 47°20' W 003°34'6 0.4
2015-May-20 05:33N 47°24' W 003°27'10 9.8
2015-May-20 04:33N 47°30' W 003°16'3 2.8
2015-May-20 03:33N 47°27' W 003°17'25 3.6
2015-May-19 20:32N 47°09' W 002°50'5 5.1
2015-May-19 19:32N 47°11' W 002°44'1211.7
2015-May-19 18:32N 47°18' W 002°58'8 7.7
2015-May-19 17:31N 47°15' W 003°08'14 1.1
2015-May-19 05:28N 47°09' W 002°50'10 9.8
2015-May-19 04:29N 47°14' W 002°37'14 0.8
2015-May-18 11:29N 47°02' W 002°27'1010.3
2015-May-18 10:28N 46°51' W 002°24'2510.5
2015-May-18 08:06N 46°38' W 002°56'1 0.9
2015-May-18 07:30N 46°39' W 002°56'1 0.6
2015-May-18 06:06N 46°39' W 002°55'610.2
2015-May-18 05:29N 46°36' W 003°03'9 3.8
2015-May-18 03:04N 46°29' W 003°11'1 1.2
2015-May-18 02:32N 46°29' W 003°12'4 3.7
2015-May-18 01:33N 46°28' W 003°06'3 2.9
2015-May-18 00:29N 46°27' W 003°02'3 2.8
2015-May-17 23:32N 46°26' W 002°59'2 2.1
2015-May-17 22:31N 46°26' W 002°56'1010.0
2015-May-17 21:33N 46°30' W 002°43'10 8.2
2015-May-17 20:21N 46°35' W 002°31'  

Dump ship's entire track history